Surface Preassure
0:00 UTC
12:00 UTC (Click for larger versions)
Andrewsfield Outlook

Current time:


  04:39:25pm (GMT)      04:39:25pm (UTC)


Headline: Warmer through Saturday, with sunny spells and isolated light showers.

This Evening and Tonight: On the cloudy side during the evening, with the odd fleeting light shower possible. Becoming largely dry with clear spells developing during the early hours, and although not as cold as recently, a frost is possible in places by dawn. Minimum Temperature 1C.

Saturday: Warmer than of late after a chilly start, with sunny spells and perhaps one or two fleeting light showers possible on the breeze. Maximum Temperature 14C.

Outlook for Sunday to Tuesday: Warmth peaking on Sunday in further sunny spells, although perhaps tempered by the strengthening wind. Some rain possible early Monday, and perhaps late Tuesday.

Nearby METAR/TAF

Stansted (EGSS)


Current conditions: VFR

METAR: EGSS 031620Z AUTO 28005KT 240V330 9999 BKN046 12/02 Q1018

TAF: TAF EGSS 031110Z 0312/0418 28006KT 9999 SCT048 BECMG 0400/0403 17010KT TEMPO 0400/0408 8000 PROB30 0403/0407 3000 MIFG BR

Southend (EGMC)


Current conditions: VFR

METAR: EGMC 031620Z 18005KT 9999 SCT048 11/02 Q1018

TAF: TAF EGMC 031406Z 0315/0324 27005KT 9999 FEW040

RAF Wattisham (EGUW)


Current conditions: VFR

METAR: EGUW 031550Z AUTO 27006KT 9999 OVC041/// 10/02 Q1018

TAF: